createdAt,value
2022-08-29T10:07:55.620Z,24.80
2022-08-29T10:10:26.258Z,25.10
2022-08-29T10:12:59.861Z,25.00
2022-08-29T10:15:49.382Z,25.00
2022-08-29T10:18:28.723Z,25.10
2022-08-29T10:21:02.906Z,25.20
2022-08-29T10:23:40.065Z,25.20
2022-08-29T10:26:13.055Z,25.30
2022-08-29T10:28:48.229Z,25.30
2022-08-29T10:31:23.076Z,25.30
2022-08-29T10:33:59.372Z,25.40
2022-08-29T10:36:32.664Z,25.40
2022-08-29T10:39:08.825Z,25.50
2022-08-29T10:41:41.571Z,25.50
2022-08-29T10:47:16.975Z,25.70
2022-08-29T10:49:55.330Z,25.70
2022-08-29T10:52:29.446Z,25.80
2022-08-29T10:55:05.324Z,26.00
2022-08-29T10:57:43.008Z,26.10
2022-08-29T11:00:15.386Z,26.20
2022-08-29T11:02:49.216Z,26.40
2022-08-29T11:05:21.681Z,26.60
2022-08-29T11:07:54.231Z,26.70
2022-08-29T11:10:27.563Z,26.70
2022-08-29T11:12:59.990Z,26.80
2022-08-29T11:15:31.118Z,26.80
2022-08-29T11:18:04.921Z,26.90
2022-08-29T11:20:36.918Z,26.90
2022-08-29T11:23:09.816Z,26.90
2022-08-29T11:25:43.523Z,26.90
2022-08-29T11:28:18.559Z,26.90
2022-08-29T11:30:50.628Z,27.00
2022-08-29T11:33:27.602Z,27.00
2022-08-29T11:36:05.001Z,27.10
2022-08-29T11:38:48.430Z,27.20
2022-08-29T11:41:28.486Z,27.30
2022-08-29T11:44:00.892Z,27.40
2022-08-29T11:46:39.031Z,27.40
2022-08-29T11:49:23.610Z,27.40
2022-08-29T11:51:55.816Z,27.50
2022-08-29T11:54:40.366Z,27.60
2022-08-29T11:57:24.925Z,27.60
2022-08-29T12:00:04.136Z,27.60
2022-08-29T12:02:48.746Z,27.70
2022-08-29T12:05:33.308Z,27.80
2022-08-29T12:08:26.198Z,28.00
2022-08-29T12:10:55.346Z,28.10
2022-08-29T12:13:42.802Z,28.10
2022-08-29T12:16:15.786Z,28.10
2022-08-29T12:18:49.258Z,28.30
2022-08-29T12:21:33.836Z,28.40
2022-08-29T12:24:03.533Z,28.60
2022-08-29T12:26:43.555Z,28.70
2022-08-29T12:29:19.733Z,28.80
2022-08-29T12:32:23.513Z,29.00
2022-08-29T12:35:07.372Z,29.00
2022-08-29T12:37:44.568Z,29.20
2022-08-29T12:40:26.528Z,29.20
2022-08-29T12:43:06.178Z,29.30
2022-08-29T12:45:37.648Z,29.40
2022-08-29T12:48:08.927Z,29.50
2022-08-29T12:50:45.330Z,29.50
2022-08-29T12:53:19.599Z,29.50
2022-08-29T12:55:50.092Z,29.50
2022-08-29T12:58:33.321Z,29.70
2022-08-29T13:01:03.100Z,29.80
2022-08-29T13:03:33.422Z,29.90
2022-08-29T13:06:11.087Z,30.00
2022-08-29T13:08:41.306Z,30.20
2022-08-29T13:11:11.630Z,30.30
2022-08-29T13:13:41.307Z,30.40
2022-08-29T13:16:11.617Z,30.50
2022-08-29T13:19:00.235Z,30.20
2022-08-29T13:21:34.830Z,30.50
2022-08-29T13:24:06.481Z,30.60
2022-08-29T13:26:36.855Z,30.70
2022-08-29T13:29:17.999Z,30.90
2022-08-29T13:31:47.525Z,31.00
2022-08-29T13:34:21.587Z,31.10
2022-08-29T13:36:59.228Z,31.30
2022-08-29T13:39:30.541Z,31.40
2022-08-29T13:42:15.088Z,31.60
2022-08-29T13:44:59.617Z,31.60
2022-08-29T13:47:30.511Z,31.70
2022-08-29T13:50:01.409Z,31.80
2022-08-29T13:52:33.620Z,32.00
2022-08-29T13:55:03.164Z,31.90
2022-08-29T13:57:34.770Z,31.90
2022-08-29T14:00:05.498Z,32.00
2022-08-29T14:02:35.161Z,32.10
2022-08-29T14:05:04.918Z,32.30
2022-08-29T14:07:38.284Z,32.50
2022-08-29T14:10:09.811Z,32.40
2022-08-29T14:12:39.905Z,32.50
2022-08-29T14:15:10.869Z,32.50
2022-08-29T14:17:41.940Z,32.60
2022-08-29T14:20:12.669Z,32.70
2022-08-29T14:22:44.755Z,32.80
2022-08-29T14:25:15.541Z,33.00
2022-08-29T14:27:47.410Z,33.10
2022-08-29T14:30:17.665Z,33.10
2022-08-29T14:32:47.151Z,33.10
2022-08-29T14:35:26.219Z,33.20
2022-08-29T14:38:00.164Z,33.00
2022-08-29T14:40:29.687Z,32.90
2022-08-29T14:42:59.741Z,33.00
2022-08-29T14:45:29.391Z,33.20
2022-08-29T14:47:59.005Z,33.60
2022-08-29T14:50:28.674Z,33.80
2022-08-29T14:53:00.823Z,34.10
2022-08-29T14:55:30.327Z,34.30
2022-08-29T14:57:59.831Z,34.60
2022-08-29T15:00:30.239Z,34.70
2022-08-29T15:03:00.310Z,34.60
2022-08-29T15:05:29.856Z,34.60
2022-08-29T15:08:06.352Z,34.50
2022-08-29T15:10:36.287Z,34.60
2022-08-29T15:13:07.332Z,34.60
2022-08-29T15:15:36.870Z,34.70
2022-08-29T15:18:07.105Z,34.70
2022-08-29T15:20:38.752Z,34.60
2022-08-29T15:23:13.152Z,34.50
2022-08-29T15:25:45.102Z,34.50
2022-08-29T15:28:21.421Z,34.60
2022-08-29T15:30:50.933Z,35.00
2022-08-29T15:33:20.462Z,35.20
2022-08-29T15:35:49.916Z,35.50
2022-08-29T15:38:21.981Z,35.90
2022-08-29T15:40:51.605Z,36.00
2022-08-29T15:43:21.133Z,35.90
2022-08-29T15:45:50.698Z,35.50
2022-08-29T15:48:20.211Z,35.50
2022-08-29T15:50:50.861Z,36.50
2022-08-29T15:53:22.963Z,37.50
2022-08-29T15:55:52.427Z,38.20
2022-08-29T15:58:21.893Z,38.50
2022-08-29T16:00:51.637Z,38.40
2022-08-29T16:03:21.336Z,37.30
2022-08-29T16:05:51.061Z,36.60
2022-08-29T16:08:29.478Z,37.30
2022-08-29T16:10:59.718Z,38.50
2022-08-29T16:13:29.414Z,40.00
2022-08-29T16:15:59.482Z,40.90
2022-08-29T16:18:29.245Z,41.30
2022-08-29T16:20:58.987Z,40.90
2022-08-29T16:23:31.405Z,40.40
2022-08-29T16:26:01.065Z,40.50
2022-08-29T16:28:31.779Z,40.20
2022-08-29T16:31:01.591Z,40.00
2022-08-29T16:33:31.337Z,40.10
2022-08-29T16:36:01.244Z,40.60
2022-08-29T16:38:34.349Z,41.10
2022-08-29T16:41:08.705Z,41.60
2022-08-29T16:43:40.089Z,41.70
2022-08-29T16:46:11.896Z,41.70
2022-08-29T16:48:42.238Z,41.40
2022-08-29T16:51:12.441Z,41.00
2022-08-29T16:53:51.432Z,40.30
2022-08-29T16:56:22.197Z,40.00
2022-08-29T16:59:04.577Z,39.90
2022-08-29T17:01:36.305Z,39.70
2022-08-29T17:04:08.587Z,39.40
2022-08-29T17:06:38.660Z,39.00
2022-08-29T17:09:09.214Z,38.70
2022-08-29T17:11:36.646Z,38.30
2022-08-29T17:14:03.623Z,38.00
2022-08-29T17:16:33.448Z,37.60
2022-08-29T17:19:03.434Z,37.20
2022-08-29T17:21:33.267Z,36.50
2022-08-29T17:24:03.547Z,35.60
2022-08-29T17:26:36.889Z,34.60
2022-08-29T17:29:10.611Z,33.70
2022-08-29T17:31:40.486Z,32.80
2022-08-29T17:34:11.765Z,32.10
2022-08-29T17:36:44.170Z,31.50
2022-08-29T17:39:14.771Z,31.00
2022-08-29T17:41:51.518Z,30.50
2022-08-29T17:44:21.781Z,30.10
2022-08-29T17:46:51.928Z,29.70
2022-08-29T17:49:21.850Z,29.40
2022-08-29T17:51:56.129Z,29.00
2022-08-29T17:54:27.220Z,28.80
2022-08-29T17:57:02.456Z,28.50
2022-08-29T17:59:34.668Z,28.30
2022-08-29T18:02:05.216Z,28.10
2022-08-29T18:04:35.140Z,27.90
2022-08-29T18:07:05.311Z,27.80
2022-08-29T18:09:35.040Z,27.60
2022-08-29T18:12:08.600Z,27.40
2022-08-29T18:14:38.282Z,27.30
2022-08-29T18:17:08.085Z,27.10
2022-08-29T18:19:38.147Z,27.00
2022-08-29T18:22:08.251Z,26.90
2022-08-29T18:24:37.969Z,26.80
2022-08-29T18:27:10.378Z,26.60
2022-08-29T18:29:40.078Z,26.50
2022-08-29T18:32:11.146Z,26.30
2022-08-29T18:34:40.908Z,26.20
2022-08-29T18:37:10.589Z,26.10
2022-08-29T18:39:40.300Z,26.10
2022-08-29T18:42:30.616Z,26.00
2022-08-29T18:45:02.442Z,25.90
2022-08-29T18:47:32.124Z,25.80
2022-08-29T18:50:14.302Z,25.70
2022-08-29T18:52:45.608Z,25.60
2022-08-29T18:55:16.073Z,25.50
2022-08-29T18:57:48.891Z,25.40
2022-08-29T19:00:20.275Z,25.20
2022-08-29T19:02:50.097Z,25.10
2022-08-29T19:05:20.193Z,25.00
2022-08-29T19:07:50.061Z,24.90
2022-08-29T19:10:20.010Z,24.80
2022-08-29T19:12:52.647Z,24.70
2022-08-29T19:15:24.391Z,24.60
2022-08-29T19:17:54.525Z,24.50
2022-08-29T19:20:39.808Z,24.40
2022-08-29T19:23:10.443Z,24.30
2022-08-29T19:25:41.236Z,24.20
2022-08-29T19:28:14.163Z,24.10
2022-08-29T19:30:45.241Z,24.00
2022-08-29T19:33:17.853Z,23.90
2022-08-29T19:35:49.579Z,23.80
2022-08-29T19:38:20.901Z,23.70
2022-08-29T19:40:56.443Z,23.60
2022-08-29T19:43:32.363Z,23.50
2022-08-29T19:46:03.995Z,23.50
2022-08-29T19:48:33.951Z,23.40
2022-08-29T19:51:04.855Z,23.40
2022-08-29T19:53:34.534Z,23.30
2022-08-29T19:56:07.385Z,23.30
2022-08-29T19:58:42.828Z,23.20
2022-08-29T20:01:13.502Z,23.20
2022-08-29T20:03:44.600Z,23.20
2022-08-29T20:06:14.397Z,23.20
2022-08-29T20:08:46.113Z,23.20
2022-08-29T20:11:19.040Z,23.30
2022-08-29T20:13:52.063Z,23.20
2022-08-29T20:16:24.646Z,23.20
2022-08-29T20:18:55.029Z,23.20
2022-08-29T20:21:25.492Z,23.10
2022-08-29T20:23:58.311Z,23.10
2022-08-29T20:26:31.423Z,23.10
2022-08-29T20:29:06.886Z,23.00
2022-08-29T20:31:36.812Z,23.00
2022-08-29T20:34:07.277Z,23.00
2022-08-29T20:36:49.645Z,23.00
2022-08-29T20:39:21.945Z,23.00
2022-08-29T20:41:53.699Z,23.10
2022-08-29T20:44:32.985Z,23.00
2022-08-29T20:47:04.136Z,23.00
2022-08-29T20:49:34.093Z,23.00
2022-08-29T20:52:06.724Z,23.00
2022-08-29T20:54:38.240Z,23.00
2022-08-29T20:57:10.199Z,22.90
2022-08-29T20:59:45.571Z,22.90
2022-08-29T21:02:15.778Z,22.90
2022-08-29T21:04:58.021Z,22.90
2022-08-29T21:07:28.409Z,22.80
2022-08-29T21:09:58.125Z,22.80
2022-08-29T21:12:29.621Z,22.70
2022-08-29T21:15:01.863Z,22.70
2022-08-29T21:17:31.625Z,22.70
2022-08-29T21:20:01.574Z,22.60
2022-08-29T21:22:31.330Z,22.50
2022-08-29T21:25:01.118Z,22.50
2022-08-29T21:27:31.084Z,22.40
2022-08-29T21:30:03.397Z,22.40
2022-08-29T21:32:35.300Z,22.30
2022-08-29T21:35:05.023Z,22.30
2022-08-29T21:37:34.698Z,22.20
2022-08-29T21:40:06.303Z,22.20
2022-08-29T21:42:36.422Z,22.30
2022-08-29T21:45:09.802Z,22.10
2022-08-29T21:47:40.188Z,22.00
2022-08-29T21:50:11.038Z,22.00
2022-08-29T21:52:40.700Z,21.90
2022-08-29T21:55:11.727Z,21.90
2022-08-29T21:57:59.370Z,21.80
2022-08-29T22:00:33.933Z,21.80
2022-08-29T22:03:06.185Z,21.70
2022-08-29T22:05:36.049Z,21.70
2022-08-29T22:08:10.457Z,21.60
2022-08-29T22:10:44.839Z,21.50
2022-08-29T22:13:14.571Z,21.40
2022-08-29T22:15:59.535Z,21.40
2022-08-29T22:18:29.761Z,21.30
2022-08-29T22:21:02.456Z,21.30
2022-08-29T22:23:32.360Z,21.20
2022-08-29T22:26:02.064Z,21.20
2022-08-29T22:28:31.827Z,21.10
2022-08-29T22:31:04.476Z,21.10
2022-08-29T22:33:34.425Z,21.00
2022-08-29T22:36:04.214Z,21.00
2022-08-29T22:38:34.105Z,20.90
2022-08-29T22:41:03.926Z,20.80
2022-08-29T22:43:33.610Z,20.90
2022-08-29T22:46:10.659Z,20.80
2022-08-29T22:48:41.175Z,20.70
2022-08-29T22:51:20.744Z,20.70
2022-08-29T22:54:03.633Z,20.70
2022-08-29T22:56:34.255Z,20.60
2022-08-29T22:59:04.232Z,20.50
2022-08-29T23:01:38.535Z,20.50
2022-08-29T23:04:08.508Z,20.40
2022-08-29T23:06:38.349Z,20.30
2022-08-29T23:09:08.430Z,20.30
2022-08-29T23:11:38.231Z,20.20
2022-08-29T23:14:08.444Z,20.10
2022-08-29T23:16:45.086Z,20.10
2022-08-29T23:19:16.178Z,20.10
2022-08-29T23:21:46.672Z,20.10
2022-08-29T23:24:16.653Z,20.10
2022-08-29T23:26:46.380Z,20.00
2022-08-29T23:29:16.249Z,20.00
2022-08-29T23:31:48.903Z,20.00
2022-08-29T23:34:18.830Z,19.90
2022-08-29T23:36:48.585Z,19.90
2022-08-29T23:39:18.230Z,19.90
2022-08-29T23:41:47.975Z,19.80
2022-08-29T23:44:18.025Z,19.80
2022-08-29T23:46:50.281Z,19.70
2022-08-29T23:49:19.974Z,19.80
2022-08-29T23:51:49.734Z,19.80
2022-08-29T23:54:19.593Z,19.80
2022-08-29T23:56:49.302Z,19.70
2022-08-29T23:59:31.337Z,19.70
